DLH7LF EDDF-LSGG
Flight info
| Callsign | DLH7LF |
|---|---|
| Flight time | 0h 53m |
| Altitude | 29000 |
| Route | ANEKI6E ANEKI Y163 PABLA/N0406F310 Y163 HERBI Y164 MOPAN DCT LUTIX DCT BENOT |
| Aircraft | A320/M-SDE2E3FGIJ1LORWXYZ/HB1 |
Departure
| Time | 2026-04-18 05:56 |
|---|---|
| Airport | Frankfurt Main Airport (EDDF) |
Arrival
| Time | 2026-04-18 06:50 |
|---|---|
| Airport | Geneva International Airport (LSGG) |
| Time | Latitude | Longitude | Altitude | Speed | Heading |
|---|---|---|---|---|---|
| 2026-04-18 05:26 | 50.04852 | 8.56946 | 356 ft | 0 kts | 294° |
| 2026-04-18 05:45 | 50.04849 | 8.56955 | 359 ft | 4 kts | 294° |
| 2026-04-18 05:46 | 50.04839 | 8.56994 | 365 ft | 4 kts | 295° |
| 2026-04-18 05:46 | 50.04830 | 8.57030 | 363 ft | 4 kts | 266° |
| 2026-04-18 05:46 | 50.04838 | 8.57064 | 361 ft | 4 kts | 214° |
| 2026-04-18 05:46 | 50.04841 | 8.57068 | 361 ft | 4 kts | 205° |
| 2026-04-18 05:47 | 50.04816 | 8.57051 | 360 ft | 4 kts | 205° |
| 2026-04-18 05:47 | 50.04794 | 8.57035 | 358 ft | 2 kts | 205° |
| 2026-04-18 05:47 | 50.04792 | 8.57034 | 358 ft | 0 kts | 205° |
| 2026-04-18 05:49 | 50.04791 | 8.57033 | 358 ft | 2 kts | 205° |
| 2026-04-18 05:50 | 50.04755 | 8.57006 | 358 ft | 6 kts | 205° |
| 2026-04-18 05:50 | 50.04718 | 8.56979 | 359 ft | 5 kts | 205° |
| 2026-04-18 05:50 | 50.04687 | 8.56956 | 358 ft | 5 kts | 205° |
| 2026-04-18 05:50 | 50.04662 | 8.56938 | 360 ft | 4 kts | 205° |
| 2026-04-18 05:51 | 50.04600 | 8.56905 | 358 ft | 15 kts | 194° |
| 2026-04-18 05:51 | 50.04510 | 8.56882 | 359 ft | 12 kts | 176° |
| 2026-04-18 05:51 | 50.04486 | 8.56981 | 361 ft | 13 kts | 71° |
| 2026-04-18 05:51 | 50.04525 | 8.57122 | 359 ft | 15 kts | 68° |
| 2026-04-18 05:52 | 50.04564 | 8.57287 | 359 ft | 17 kts | 71° |
| 2026-04-18 05:52 | 50.04605 | 8.57476 | 364 ft | 19 kts | 69° |
| 2026-04-18 05:52 | 50.04655 | 8.57674 | 358 ft | 20 kts | 68° |
| 2026-04-18 05:52 | 50.04702 | 8.57882 | 364 ft | 19 kts | 71° |
| 2026-04-18 05:53 | 50.04672 | 8.57979 | 366 ft | 8 kts | 154° |
| 2026-04-18 05:53 | 50.04619 | 8.58011 | 361 ft | 10 kts | 160° |
| 2026-04-18 05:53 | 50.04566 | 8.58085 | 362 ft | 12 kts | 103° |
| 2026-04-18 05:53 | 50.04592 | 8.58221 | 367 ft | 14 kts | 70° |
| 2026-04-18 05:54 | 50.04629 | 8.58381 | 372 ft | 18 kts | 69° |
| 2026-04-18 05:54 | 50.04655 | 8.58546 | 372 ft | 8 kts | 120° |
| 2026-04-18 05:54 | 50.04607 | 8.58580 | 369 ft | 7 kts | 162° |
| 2026-04-18 05:54 | 50.04600 | 8.58584 | 373 ft | 0 kts | 162° |
| 2026-04-18 05:55 | 50.04568 | 8.58600 | 373 ft | 13 kts | 162° |
| 2026-04-18 05:55 | 50.04487 | 8.58589 | 370 ft | 12 kts | 234° |
| 2026-04-18 05:55 | 50.04482 | 8.58568 | 370 ft | 0 kts | 249° |
| 2026-04-18 05:56 | 50.04391 | 8.58183 | 370 ft | 79 kts | 249° |
| 2026-04-18 05:56 | 50.04116 | 8.57033 | 365 ft | 144 kts | 249° |
| 2026-04-18 05:56 | 50.03722 | 8.55406 | 734 ft | 162 kts | 249° |
| 2026-04-18 05:56 | 50.03329 | 8.53783 | 1489 ft | 160 kts | 250° |
| 2026-04-18 05:57 | 50.02175 | 8.50492 | 2381 ft | 198 kts | 214° |
| 2026-04-18 05:57 | 50.00844 | 8.49595 | 2811 ft | 217 kts | 198° |
| 2026-04-18 05:57 | 49.99371 | 8.49077 | 3690 ft | 219 kts | 178° |
| 2026-04-18 05:58 | 49.97935 | 8.49806 | 4546 ft | 223 kts | 143° |
| 2026-04-18 05:58 | 49.96967 | 8.51691 | 5388 ft | 227 kts | 121° |
| 2026-04-18 05:58 | 49.96000 | 8.53605 | 6074 ft | 238 kts | 146° |
| 2026-04-18 05:58 | 49.94394 | 8.54460 | 6489 ft | 258 kts | 176° |
| 2026-04-18 05:59 | 49.92550 | 8.54424 | 7169 ft | 270 kts | 186° |
| 2026-04-18 05:59 | 49.90663 | 8.54157 | 8070 ft | 274 kts | 186° |
| 2026-04-18 05:59 | 49.88748 | 8.53919 | 9007 ft | 278 kts | 185° |
| 2026-04-18 05:59 | 49.86797 | 8.53787 | 9924 ft | 283 kts | 182° |
| 2026-04-18 06:00 | 49.84790 | 8.53760 | 10560 ft | 298 kts | 181° |
| 2026-04-18 06:00 | 49.82639 | 8.53816 | 10938 ft | 319 kts | 180° |
| 2026-04-18 06:00 | 49.80423 | 8.53936 | 11609 ft | 327 kts | 179° |
| 2026-04-18 06:00 | 49.78131 | 8.54062 | 12386 ft | 332 kts | 183° |
| 2026-04-18 06:01 | 49.75814 | 8.53820 | 13182 ft | 336 kts | 187° |
| 2026-04-18 06:01 | 49.73469 | 8.53529 | 13963 ft | 340 kts | 187° |
| 2026-04-18 06:01 | 49.71095 | 8.53224 | 14669 ft | 345 kts | 187° |
| 2026-04-18 06:01 | 49.68692 | 8.52911 | 15371 ft | 349 kts | 188° |
| 2026-04-18 06:02 | 49.66262 | 8.52586 | 16073 ft | 352 kts | 188° |
| 2026-04-18 06:02 | 49.63803 | 8.52254 | 16746 ft | 357 kts | 188° |
| 2026-04-18 06:02 | 49.61316 | 8.51922 | 17428 ft | 361 kts | 188° |
| 2026-04-18 06:02 | 49.58835 | 8.51591 | 18101 ft | 365 kts | 188° |
| 2026-04-18 06:03 | 49.56292 | 8.51254 | 18735 ft | 369 kts | 188° |
| 2026-04-18 06:03 | 49.53721 | 8.50918 | 19334 ft | 372 kts | 188° |
| 2026-04-18 06:03 | 49.51132 | 8.50583 | 19944 ft | 375 kts | 188° |
| 2026-04-18 06:03 | 49.48520 | 8.50245 | 20561 ft | 378 kts | 188° |
| 2026-04-18 06:04 | 49.45890 | 8.49901 | 21173 ft | 381 kts | 188° |
| 2026-04-18 06:04 | 49.43241 | 8.49554 | 21771 ft | 384 kts | 188° |
| 2026-04-18 06:04 | 49.40565 | 8.49202 | 22362 ft | 387 kts | 188° |
| 2026-04-18 06:04 | 49.37871 | 8.48845 | 22965 ft | 390 kts | 188° |
| 2026-04-18 06:05 | 49.35192 | 8.48493 | 23556 ft | 393 kts | 188° |
| 2026-04-18 06:05 | 49.32456 | 8.48136 | 24081 ft | 396 kts | 188° |
| 2026-04-18 06:05 | 49.29698 | 8.47776 | 24575 ft | 399 kts | 188° |
| 2026-04-18 06:05 | 49.26927 | 8.47417 | 25062 ft | 401 kts | 188° |
| 2026-04-18 06:06 | 49.24136 | 8.47054 | 25538 ft | 403 kts | 188° |
| 2026-04-18 06:06 | 49.21334 | 8.46689 | 25988 ft | 406 kts | 188° |
| 2026-04-18 06:06 | 49.18509 | 8.46324 | 26442 ft | 408 kts | 188° |
| 2026-04-18 06:06 | 49.15674 | 8.45959 | 26887 ft | 411 kts | 188° |
| 2026-04-18 06:07 | 49.12819 | 8.45592 | 27327 ft | 413 kts | 188° |
| 2026-04-18 06:07 | 49.09949 | 8.45221 | 27754 ft | 415 kts | 188° |
| 2026-04-18 06:07 | 49.07103 | 8.44840 | 28167 ft | 417 kts | 190° |
| 2026-04-18 06:07 | 49.04258 | 8.44030 | 28578 ft | 416 kts | 196° |
| 2026-04-18 06:08 | 49.01429 | 8.43035 | 28985 ft | 418 kts | 196° |
| 2026-04-18 06:08 | 48.98583 | 8.42035 | 29378 ft | 421 kts | 196° |
| 2026-04-18 06:08 | 48.95721 | 8.41033 | 29761 ft | 423 kts | 196° |
| 2026-04-18 06:08 | 48.92843 | 8.40032 | 30148 ft | 426 kts | 196° |
| 2026-04-18 06:09 | 48.89949 | 8.39029 | 30490 ft | 428 kts | 196° |
| 2026-04-18 06:09 | 48.87041 | 8.38022 | 30814 ft | 429 kts | 196° |
| 2026-04-18 06:09 | 48.84161 | 8.37027 | 31105 ft | 431 kts | 196° |
| 2026-04-18 06:10 | 48.78431 | 8.35064 | 31187 ft | 406 kts | 196° |
| 2026-04-18 06:10 | 48.73052 | 8.33150 | 31190 ft | 393 kts | 197° |
| 2026-04-18 06:11 | 48.67761 | 8.31179 | 31190 ft | 391 kts | 197° |
| 2026-04-18 06:11 | 48.62510 | 8.29239 | 31186 ft | 391 kts | 197° |
| 2026-04-18 06:12 | 48.57224 | 8.27315 | 31188 ft | 391 kts | 197° |
| 2026-04-18 06:12 | 48.51937 | 8.25403 | 31187 ft | 390 kts | 197° |
| 2026-04-18 06:13 | 48.46655 | 8.23491 | 31189 ft | 390 kts | 197° |
| 2026-04-18 06:13 | 48.41382 | 8.21556 | 31189 ft | 390 kts | 197° |
| 2026-04-18 06:14 | 48.36146 | 8.19639 | 31190 ft | 390 kts | 197° |
| 2026-04-18 06:14 | 48.30874 | 8.17725 | 31185 ft | 390 kts | 197° |
| 2026-04-18 06:15 | 48.25603 | 8.15787 | 31184 ft | 389 kts | 200° |
| 2026-04-18 06:15 | 48.20703 | 8.12548 | 31185 ft | 384 kts | 210° |
| 2026-04-18 06:16 | 48.15912 | 8.08982 | 31185 ft | 385 kts | 209° |
| 2026-04-18 06:16 | 48.11143 | 8.05464 | 31171 ft | 385 kts | 209° |
| 2026-04-18 06:17 | 48.06332 | 8.01930 | 31173 ft | 385 kts | 209° |
| 2026-04-18 06:17 | 48.01519 | 7.98399 | 31170 ft | 386 kts | 209° |
| 2026-04-18 06:18 | 47.96703 | 7.94869 | 31173 ft | 386 kts | 209° |
| 2026-04-18 06:18 | 47.91922 | 7.91365 | 31165 ft | 385 kts | 209° |
| 2026-04-18 06:19 | 47.87100 | 7.87845 | 31172 ft | 386 kts | 209° |
| 2026-04-18 06:19 | 47.82274 | 7.84328 | 31172 ft | 386 kts | 209° |
| 2026-04-18 06:20 | 47.77448 | 7.80811 | 31186 ft | 386 kts | 209° |
| 2026-04-18 06:20 | 47.72621 | 7.77300 | 31177 ft | 387 kts | 209° |
| 2026-04-18 06:21 | 47.67816 | 7.73820 | 31183 ft | 387 kts | 209° |
| 2026-04-18 06:21 | 47.62978 | 7.70320 | 31196 ft | 387 kts | 209° |
| 2026-04-18 06:22 | 47.58131 | 7.66822 | 31198 ft | 387 kts | 209° |
| 2026-04-18 06:22 | 47.53285 | 7.63324 | 31182 ft | 387 kts | 209° |
| 2026-04-18 06:23 | 47.48464 | 7.59854 | 31191 ft | 388 kts | 209° |
| 2026-04-18 06:23 | 47.43605 | 7.56374 | 31194 ft | 389 kts | 209° |
| 2026-04-18 06:24 | 47.38736 | 7.52898 | 31198 ft | 389 kts | 209° |
| 2026-04-18 06:24 | 47.33867 | 7.49420 | 31192 ft | 389 kts | 209° |
| 2026-04-18 06:25 | 47.28995 | 7.45930 | 31194 ft | 389 kts | 209° |
| 2026-04-18 06:25 | 47.24151 | 7.42480 | 31199 ft | 390 kts | 209° |
| 2026-04-18 06:26 | 47.19266 | 7.39004 | 31200 ft | 389 kts | 211° |
| 2026-04-18 06:26 | 47.15020 | 7.34264 | 31149 ft | 382 kts | 230° |
| 2026-04-18 06:26 | 47.13338 | 7.31259 | 30898 ft | 380 kts | 234° |
| 2026-04-18 06:27 | 47.11702 | 7.28229 | 30655 ft | 377 kts | 234° |
| 2026-04-18 06:27 | 47.10084 | 7.25240 | 30265 ft | 372 kts | 234° |
| 2026-04-18 06:27 | 47.08499 | 7.22319 | 29803 ft | 369 kts | 234° |
| 2026-04-18 06:27 | 47.06907 | 7.19390 | 29392 ft | 365 kts | 234° |
| 2026-04-18 06:28 | 47.05332 | 7.16499 | 28991 ft | 361 kts | 234° |
| 2026-04-18 06:28 | 47.03772 | 7.13641 | 28576 ft | 357 kts | 234° |
| 2026-04-18 06:28 | 47.02230 | 7.10815 | 28174 ft | 353 kts | 234° |
| 2026-04-18 06:28 | 47.00702 | 7.08014 | 27764 ft | 350 kts | 234° |
| 2026-04-18 06:29 | 46.99189 | 7.05243 | 27355 ft | 347 kts | 234° |
| 2026-04-18 06:29 | 46.97688 | 7.02501 | 26941 ft | 344 kts | 234° |
| 2026-04-18 06:29 | 46.96198 | 6.99782 | 26497 ft | 341 kts | 234° |
| 2026-04-18 06:29 | 46.94738 | 6.97122 | 26109 ft | 338 kts | 234° |
| 2026-04-18 06:30 | 46.93264 | 6.94444 | 25675 ft | 337 kts | 235° |
| 2026-04-18 06:30 | 46.91799 | 6.91780 | 25243 ft | 335 kts | 235° |
| 2026-04-18 06:30 | 46.90249 | 6.89227 | 24797 ft | 337 kts | 230° |
| 2026-04-18 06:30 | 46.88627 | 6.86762 | 24345 ft | 336 kts | 230° |
| 2026-04-18 06:31 | 46.87003 | 6.84300 | 23894 ft | 336 kts | 230° |
| 2026-04-18 06:31 | 46.85380 | 6.81842 | 23389 ft | 336 kts | 230° |
| 2026-04-18 06:31 | 46.83764 | 6.79396 | 22941 ft | 334 kts | 230° |
| 2026-04-18 06:31 | 46.82159 | 6.76965 | 22510 ft | 332 kts | 230° |
| 2026-04-18 06:32 | 46.80581 | 6.74579 | 22078 ft | 330 kts | 230° |
| 2026-04-18 06:32 | 46.78990 | 6.72174 | 21652 ft | 328 kts | 230° |
| 2026-04-18 06:32 | 46.77407 | 6.69781 | 21216 ft | 327 kts | 230° |
| 2026-04-18 06:32 | 46.75834 | 6.67401 | 20809 ft | 325 kts | 230° |
| 2026-04-18 06:33 | 46.74262 | 6.65028 | 20395 ft | 325 kts | 230° |
| 2026-04-18 06:33 | 46.72693 | 6.62663 | 19979 ft | 325 kts | 230° |
| 2026-04-18 06:33 | 46.71122 | 6.60304 | 19567 ft | 324 kts | 229° |
| 2026-04-18 06:33 | 46.69551 | 6.57945 | 19136 ft | 324 kts | 229° |
| 2026-04-18 06:34 | 46.68001 | 6.55616 | 18739 ft | 325 kts | 229° |
| 2026-04-18 06:34 | 46.66430 | 6.53256 | 18309 ft | 325 kts | 229° |
| 2026-04-18 06:34 | 46.64858 | 6.50902 | 17889 ft | 323 kts | 229° |
| 2026-04-18 06:34 | 46.63294 | 6.48565 | 17497 ft | 322 kts | 229° |
| 2026-04-18 06:35 | 46.61737 | 6.46239 | 17096 ft | 320 kts | 229° |
| 2026-04-18 06:35 | 46.60185 | 6.43924 | 16714 ft | 319 kts | 229° |
| 2026-04-18 06:35 | 46.58642 | 6.41619 | 16333 ft | 317 kts | 229° |
| 2026-04-18 06:35 | 46.57105 | 6.39324 | 15955 ft | 316 kts | 229° |
| 2026-04-18 06:36 | 46.55593 | 6.37069 | 15588 ft | 315 kts | 229° |
| 2026-04-18 06:36 | 46.54066 | 6.34789 | 15219 ft | 315 kts | 228° |
| 2026-04-18 06:36 | 46.52542 | 6.32523 | 14957 ft | 312 kts | 228° |
| 2026-04-18 06:36 | 46.51026 | 6.30277 | 14719 ft | 311 kts | 228° |
| 2026-04-18 06:37 | 46.49514 | 6.28046 | 14474 ft | 310 kts | 228° |
| 2026-04-18 06:37 | 46.48002 | 6.25819 | 14230 ft | 309 kts | 228° |
| 2026-04-18 06:37 | 46.46496 | 6.23601 | 13983 ft | 308 kts | 228° |
| 2026-04-18 06:37 | 46.44995 | 6.21388 | 13723 ft | 307 kts | 228° |
| 2026-04-18 06:38 | 46.43499 | 6.19182 | 13477 ft | 306 kts | 227° |
| 2026-04-18 06:38 | 46.42028 | 6.17016 | 13252 ft | 305 kts | 227° |
| 2026-04-18 06:38 | 46.40539 | 6.14826 | 13011 ft | 304 kts | 227° |
| 2026-04-18 06:38 | 46.39056 | 6.12650 | 12771 ft | 304 kts | 227° |
| 2026-04-18 06:39 | 46.37573 | 6.10480 | 12535 ft | 303 kts | 227° |
| 2026-04-18 06:39 | 46.36093 | 6.08316 | 12298 ft | 302 kts | 227° |
| 2026-04-18 06:39 | 46.34621 | 6.06162 | 12055 ft | 301 kts | 227° |
| 2026-04-18 06:39 | 46.33154 | 6.04011 | 11823 ft | 299 kts | 227° |
| 2026-04-18 06:40 | 46.31693 | 6.01865 | 11589 ft | 299 kts | 227° |
| 2026-04-18 06:40 | 46.30257 | 5.99757 | 11353 ft | 298 kts | 227° |
| 2026-04-18 06:40 | 46.28804 | 5.97631 | 11123 ft | 297 kts | 227° |
| 2026-04-18 06:40 | 46.27355 | 5.95519 | 10890 ft | 296 kts | 227° |
| 2026-04-18 06:41 | 46.25911 | 5.93418 | 10653 ft | 294 kts | 227° |
| 2026-04-18 06:41 | 46.24476 | 5.91326 | 10422 ft | 293 kts | 227° |
| 2026-04-18 06:41 | 46.23045 | 5.89238 | 10190 ft | 292 kts | 227° |
| 2026-04-18 06:41 | 46.21616 | 5.87160 | 9919 ft | 291 kts | 227° |
| 2026-04-18 06:42 | 46.20193 | 5.85093 | 9690 ft | 290 kts | 226° |
| 2026-04-18 06:42 | 46.18773 | 5.83032 | 9453 ft | 289 kts | 226° |
| 2026-04-18 06:42 | 46.17356 | 5.80976 | 9213 ft | 288 kts | 226° |
| 2026-04-18 06:42 | 46.15964 | 5.78963 | 8983 ft | 287 kts | 226° |
| 2026-04-18 06:43 | 46.14559 | 5.76928 | 8744 ft | 286 kts | 226° |
| 2026-04-18 06:43 | 46.13162 | 5.74906 | 8525 ft | 281 kts | 226° |
| 2026-04-18 06:43 | 46.11807 | 5.72967 | 8396 ft | 269 kts | 222° |
| 2026-04-18 06:43 | 46.10210 | 5.71729 | 8261 ft | 259 kts | 192° |
| 2026-04-18 06:44 | 46.08447 | 5.71860 | 7984 ft | 256 kts | 160° |
| 2026-04-18 06:44 | 46.06993 | 5.73292 | 7633 ft | 254 kts | 134° |
| 2026-04-18 06:44 | 46.05786 | 5.75092 | 7371 ft | 248 kts | 127° |
| 2026-04-18 06:44 | 46.04956 | 5.77204 | 7191 ft | 238 kts | 108° |
| 2026-04-18 06:45 | 46.04637 | 5.79480 | 7010 ft | 231 kts | 92° |
| 2026-04-18 06:45 | 46.04801 | 5.81782 | 6554 ft | 237 kts | 73° |
| 2026-04-18 06:45 | 46.05471 | 5.83928 | 6237 ft | 235 kts | 55° |
| 2026-04-18 06:45 | 46.06530 | 5.85689 | 5934 ft | 232 kts | 44° |
| 2026-04-18 06:46 | 46.07664 | 5.87332 | 5625 ft | 230 kts | 44° |
| 2026-04-18 06:46 | 46.08789 | 5.88964 | 5326 ft | 229 kts | 44° |
| 2026-04-18 06:46 | 46.09905 | 5.90587 | 5023 ft | 227 kts | 44° |
| 2026-04-18 06:46 | 46.11014 | 5.92202 | 4721 ft | 227 kts | 44° |
| 2026-04-18 06:47 | 46.12121 | 5.93813 | 4408 ft | 225 kts | 44° |
| 2026-04-18 06:47 | 46.13205 | 5.95394 | 4120 ft | 224 kts | 45° |
| 2026-04-18 06:47 | 46.14297 | 5.96985 | 3823 ft | 223 kts | 44° |
| 2026-04-18 06:47 | 46.15380 | 5.98565 | 3528 ft | 218 kts | 45° |
| 2026-04-18 06:48 | 46.16413 | 6.00074 | 3247 ft | 205 kts | 45° |
| 2026-04-18 06:48 | 46.17386 | 6.01495 | 2994 ft | 192 kts | 45° |
| 2026-04-18 06:48 | 46.18289 | 6.02815 | 2727 ft | 178 kts | 45° |
| 2026-04-18 06:48 | 46.19120 | 6.04031 | 2488 ft | 164 kts | 45° |
| 2026-04-18 06:49 | 46.19893 | 6.05157 | 2264 ft | 152 kts | 45° |
| 2026-04-18 06:49 | 46.20623 | 6.06219 | 2047 ft | 146 kts | 45° |
| 2026-04-18 06:49 | 46.21331 | 6.07251 | 1859 ft | 144 kts | 45° |
| 2026-04-18 06:49 | 46.22017 | 6.08271 | 1673 ft | 143 kts | 46° |
| 2026-04-18 06:50 | 46.22709 | 6.09297 | 1483 ft | 142 kts | 45° |
| 2026-04-18 06:50 | 46.23379 | 6.10278 | 1395 ft | 125 kts | 45° |
| 2026-04-18 06:50 | 46.23788 | 6.10868 | 1379 ft | 45 kts | 45° |
| 2026-04-18 06:50 | 46.23820 | 6.11073 | 1379 ft | 22 kts | 161° |
| 2026-04-18 06:51 | 46.23685 | 6.11053 | 1385 ft | 17 kts | 217° |
| 2026-04-18 06:51 | 46.23608 | 6.10942 | 1391 ft | 16 kts | 224° |
| 2026-04-18 06:51 | 46.23531 | 6.10825 | 1391 ft | 17 kts | 226° |
| 2026-04-18 06:51 | 46.23463 | 6.10723 | 1397 ft | 11 kts | 224° |
| 2026-04-18 06:52 | 46.23408 | 6.10716 | 1402 ft | 7 kts | 146° |
| 2026-04-18 06:52 | 46.23380 | 6.10761 | 1400 ft | 5 kts | 131° |
| 2026-04-18 06:52 | 46.23346 | 6.10797 | 1401 ft | 7 kts | 165° |
| 2026-04-18 06:52 | 46.23298 | 6.10793 | 1401 ft | 7 kts | 190° |
| 2026-04-18 06:53 | 46.23257 | 6.10777 | 1393 ft | 6 kts | 198° |
| 2026-04-18 06:53 | 46.23214 | 6.10731 | 1393 ft | 11 kts | 224° |
| 2026-04-18 06:53 | 46.23166 | 6.10657 | 1398 ft | 9 kts | 226° |
| 2026-04-18 06:53 | 46.23109 | 6.10575 | 1401 ft | 15 kts | 225° |
| 2026-04-18 06:54 | 46.23048 | 6.10491 | 1395 ft | 7 kts | 199° |
| 2026-04-18 06:54 | 46.23015 | 6.10518 | 1397 ft | 1 kts | 135° |
| 2026-04-18 06:54 | 46.23010 | 6.10525 | 1396 ft | 1 kts | 135° |
| 2026-04-18 06:54 | 46.23007 | 6.10529 | 1393 ft | 0 kts | 135° |
| 2026-04-18 06:55 | 46.23006 | 6.10530 | 1393 ft | 0 kts | 135° |
| 2026-04-18 06:55 | 46.23006 | 6.10531 | 1393 ft | 0 kts | 135° |